O John Clark Restricted Landing Area [CLOSED]

Jump to: basic info | weather | comments

Related pages: nearby airports | nearby navaids | notams | map

Basic information (top)

Codes: 7IL2
Location: lon 42.368401, lat -87.991699, elev 790 ft / 241 m msl
Status: closed

Weather (top)

Current conditions for Waukegan Regional Airport 6nm (12km) ENE (rec'd 2014/12/19 13:55Z):

KUGN 191355Z 00000KT 8SM OVC024 M03/M06 A3029 RMK AO2 SLP273 T10331061

Airport forecast for Kenosha Regional Airport 14nm (26km) NNE (rec'd 2014/12/19 12:42Z):

TAF KENW 191138Z 1912/2012 32005KT P6SM OVC025 
     FM191500 32005KT P6SM BKN030 
      TEMPO 1915/1917 SCT030 
     FM191700 32005KT P6SM SCT030 
     FM200300 VRB03KT P6SM BKN025

Latest comments (top)

No comments yet for O John Clark Restricted Landing Area

More... (top)

See also NOTAMs and nearby airports and navaids, or visit the O John Clark Restricted Landing Area page at the main OurAirports website..